sensor_id;sensor_type;location;lat;lon;timestamp;P1;durP1;ratioP1;P2;durP2;ratioP2
2338;SDS011;1180;51.438;6.978;2023-05-07T00:01:25;2.90;;;2.57;;
2338;SDS011;1180;51.438;6.978;2023-05-07T00:03:50;5.00;;;2.57;;
2338;SDS011;1180;51.438;6.978;2023-05-07T00:06:16;3.50;;;2.50;;
2338;SDS011;1180;51.438;6.978;2023-05-07T00:08:42;3.13;;;2.83;;
2338;SDS011;1180;51.438;6.978;2023-05-07T00:11:07;2.70;;;2.50;;
2338;SDS011;1180;51.438;6.978;2023-05-07T00:13:33;3.83;;;3.23;;
2338;SDS011;1180;51.438;6.978;2023-05-07T00:16:01;4.67;;;3.60;;
2338;SDS011;1180;51.438;6.978;2023-05-07T00:18:27;3.93;;;3.57;;
2338;SDS011;1180;51.438;6.978;2023-05-07T00:20:53;3.90;;;3.07;;
2338;SDS011;1180;51.438;6.978;2023-05-07T00:23:19;4.20;;;3.50;;
2338;SDS011;1180;51.438;6.978;2023-05-07T00:25:44;4.03;;;2.60;;
2338;SDS011;1180;51.438;6.978;2023-05-07T00:28:09;4.23;;;3.33;;
2338;SDS011;1180;51.438;6.978;2023-05-07T00:30:35;4.60;;;2.90;;
2338;SDS011;1180;51.438;6.978;2023-05-07T00:33:00;4.30;;;2.80;;
2338;SDS011;1180;51.438;6.978;2023-05-07T00:35:25;3.60;;;3.10;;
2338;SDS011;1180;51.438;6.978;2023-05-07T00:37:51;3.63;;;2.60;;
2338;SDS011;1180;51.438;6.978;2023-05-07T00:40:16;3.80;;;3.10;;
2338;SDS011;1180;51.438;6.978;2023-05-07T00:42:41;8.17;;;4.67;;
2338;SDS011;1180;51.438;6.978;2023-05-07T00:45:12;3.57;;;3.00;;
2338;SDS011;1180;51.438;6.978;2023-05-07T00:47:38;4.53;;;3.37;;
2338;SDS011;1180;51.438;6.978;2023-05-07T00:50:05;3.73;;;3.30;;
2338;SDS011;1180;51.438;6.978;2023-05-07T00:52:31;4.73;;;3.13;;
2338;SDS011;1180;51.438;6.978;2023-05-07T00:54:56;3.40;;;3.10;;
2338;SDS011;1180;51.438;6.978;2023-05-07T00:57:22;4.23;;;3.83;;
2338;SDS011;1180;51.438;6.978;2023-05-07T00:59:49;5.30;;;4.40;;
2338;SDS011;1180;51.438;6.978;2023-05-07T01:02:16;5.60;;;4.10;;
2338;SDS011;1180;51.438;6.978;2023-05-07T01:04:41;3.90;;;3.50;;
2338;SDS011;1180;51.438;6.978;2023-05-07T01:07:07;4.87;;;4.47;;
2338;SDS011;1180;51.438;6.978;2023-05-07T01:09:33;4.00;;;3.60;;
2338;SDS011;1180;51.438;6.978;2023-05-07T01:12:00;4.30;;;3.90;;
2338;SDS011;1180;51.438;6.978;2023-05-07T01:14:26;4.50;;;4.00;;
2338;SDS011;1180;51.438;6.978;2023-05-07T01:16:52;4.80;;;3.87;;
2338;SDS011;1180;51.438;6.978;2023-05-07T01:19:18;3.93;;;3.50;;
2338;SDS011;1180;51.438;6.978;2023-05-07T01:21:45;4.30;;;3.90;;
2338;SDS011;1180;51.438;6.978;2023-05-07T01:24:12;4.73;;;3.87;;
2338;SDS011;1180;51.438;6.978;2023-05-07T01:26:40;4.60;;;3.20;;
2338;SDS011;1180;51.438;6.978;2023-05-07T01:29:05;3.90;;;3.43;;
2338;SDS011;1180;51.438;6.978;2023-05-07T01:31:32;4.93;;;4.33;;
2338;SDS011;1180;51.438;6.978;2023-05-07T01:33:58;5.53;;;3.97;;
2338;SDS011;1180;51.438;6.978;2023-05-07T01:36:25;4.90;;;4.30;;
2338;SDS011;1180;51.438;6.978;2023-05-07T01:38:53;4.90;;;4.40;;
2338;SDS011;1180;51.438;6.978;2023-05-07T01:41:19;3.93;;;3.60;;
2338;SDS011;1180;51.438;6.978;2023-05-07T01:43:44;6.03;;;5.20;;
2338;SDS011;1180;51.438;6.978;2023-05-07T01:46:11;4.93;;;4.53;;
2338;SDS011;1180;51.438;6.978;2023-05-07T01:48:38;5.00;;;4.50;;
2338;SDS011;1180;51.438;6.978;2023-05-07T01:51:04;5.93;;;4.37;;
2338;SDS011;1180;51.438;6.978;2023-05-07T01:53:35;4.80;;;4.30;;
2338;SDS011;1180;51.438;6.978;2023-05-07T01:56:01;5.30;;;4.60;;
2338;SDS011;1180;51.438;6.978;2023-05-07T01:58:26;5.07;;;4.30;;
2338;SDS011;1180;51.438;6.978;2023-05-07T02:00:52;6.33;;;5.37;;
2338;SDS011;1180;51.438;6.978;2023-05-07T02:03:17;5.17;;;4.57;;
2338;SDS011;1180;51.438;6.978;2023-05-07T02:05:43;4.30;;;3.83;;
2338;SDS011;1180;51.438;6.978;2023-05-07T02:08:08;5.97;;;5.00;;
2338;SDS011;1180;51.438;6.978;2023-05-07T02:10:33;4.70;;;4.30;;
2338;SDS011;1180;51.438;6.978;2023-05-07T02:12:59;4.90;;;4.50;;
2338;SDS011;1180;51.438;6.978;2023-05-07T02:15:26;4.87;;;4.47;;
2338;SDS011;1180;51.438;6.978;2023-05-07T02:17:58;5.00;;;4.33;;
2338;SDS011;1180;51.438;6.978;2023-05-07T02:20:25;7.87;;;5.07;;
2338;SDS011;1180;51.438;6.978;2023-05-07T02:22:50;6.27;;;4.77;;
2338;SDS011;1180;51.438;6.978;2023-05-07T02:25:16;6.63;;;4.27;;
2338;SDS011;1180;51.438;6.978;2023-05-07T02:27:41;4.63;;;4.03;;
2338;SDS011;1180;51.438;6.978;2023-05-07T02:30:07;4.50;;;3.93;;
2338;SDS011;1180;51.438;6.978;2023-05-07T02:32:32;6.20;;;4.90;;
2338;SDS011;1180;51.438;6.978;2023-05-07T02:34:57;6.00;;;5.40;;
2338;SDS011;1180;51.438;6.978;2023-05-07T02:37:23;4.83;;;4.37;;
2338;SDS011;1180;51.438;6.978;2023-05-07T02:39:48;5.30;;;4.67;;
2338;SDS011;1180;51.438;6.978;2023-05-07T02:42:13;5.43;;;4.83;;
2338;SDS011;1180;51.438;6.978;2023-05-07T02:44:39;5.90;;;4.53;;
2338;SDS011;1180;51.438;6.978;2023-05-07T02:47:04;6.43;;;5.23;;
2338;SDS011;1180;51.438;6.978;2023-05-07T02:49:30;5.53;;;5.03;;
2338;SDS011;1180;51.438;6.978;2023-05-07T02:51:55;6.00;;;5.30;;
2338;SDS011;1180;51.438;6.978;2023-05-07T02:54:20;5.33;;;4.83;;
2338;SDS011;1180;51.438;6.978;2023-05-07T02:56:46;4.90;;;4.50;;
2338;SDS011;1180;51.438;6.978;2023-05-07T02:59:11;7.93;;;5.00;;
2338;SDS011;1180;51.438;6.978;2023-05-07T03:01:36;7.50;;;4.77;;
2338;SDS011;1180;51.438;6.978;2023-05-07T03:04:02;5.07;;;4.57;;
2338;SDS011;1180;51.438;6.978;2023-05-07T03:06:27;4.50;;;4.10;;
2338;SDS011;1180;51.438;6.978;2023-05-07T03:08:52;4.60;;;4.20;;
2338;SDS011;1180;51.438;6.978;2023-05-07T03:11:17;6.97;;;4.70;;
2338;SDS011;1180;51.438;6.978;2023-05-07T03:13:43;5.90;;;4.87;;
2338;SDS011;1180;51.438;6.978;2023-05-07T03:16:08;6.83;;;5.43;;
2338;SDS011;1180;51.438;6.978;2023-05-07T03:18:34;4.80;;;4.40;;
2338;SDS011;1180;51.438;6.978;2023-05-07T03:20:59;6.20;;;5.57;;
2338;SDS011;1180;51.438;6.978;2023-05-07T03:23:24;6.57;;;5.23;;
2338;SDS011;1180;51.438;6.978;2023-05-07T03:25:50;5.73;;;5.10;;
2338;SDS011;1180;51.438;6.978;2023-05-07T03:28:15;5.20;;;4.70;;
2338;SDS011;1180;51.438;6.978;2023-05-07T03:30:40;7.80;;;5.87;;
2338;SDS011;1180;51.438;6.978;2023-05-07T03:33:06;4.90;;;4.50;;
2338;SDS011;1180;51.438;6.978;2023-05-07T03:35:31;5.47;;;4.97;;
2338;SDS011;1180;51.438;6.978;2023-05-07T03:37:57;5.20;;;4.70;;
2338;SDS011;1180;51.438;6.978;2023-05-07T03:40:22;7.00;;;4.97;;
2338;SDS011;1180;51.438;6.978;2023-05-07T03:42:47;5.80;;;4.93;;
2338;SDS011;1180;51.438;6.978;2023-05-07T03:45:13;5.43;;;4.93;;
2338;SDS011;1180;51.438;6.978;2023-05-07T03:47:38;6.17;;;4.83;;
2338;SDS011;1180;51.438;6.978;2023-05-07T03:50:03;6.60;;;5.50;;
2338;SDS011;1180;51.438;6.978;2023-05-07T03:52:30;5.20;;;4.70;;
2338;SDS011;1180;51.438;6.978;2023-05-07T03:54:55;5.13;;;4.40;;
2338;SDS011;1180;51.438;6.978;2023-05-07T03:57:21;9.00;;;5.60;;
2338;SDS011;1180;51.438;6.978;2023-05-07T03:59:46;5.27;;;4.77;;
2338;SDS011;1180;51.438;6.978;2023-05-07T04:02:11;5.70;;;5.07;;
2338;SDS011;1180;51.438;6.978;2023-05-07T04:04:37;5.23;;;4.70;;
2338;SDS011;1180;51.438;6.978;2023-05-07T04:07:02;6.03;;;5.43;;
2338;SDS011;1180;51.438;6.978;2023-05-07T04:09:28;5.77;;;5.27;;
2338;SDS011;1180;51.438;6.978;2023-05-07T04:11:53;7.73;;;5.57;;
2338;SDS011;1180;51.438;6.978;2023-05-07T04:14:18;8.90;;;6.57;;
2338;SDS011;1180;51.438;6.978;2023-05-07T04:16:44;6.77;;;5.90;;
2338;SDS011;1180;51.438;6.978;2023-05-07T04:19:09;5.77;;;5.27;;
2338;SDS011;1180;51.438;6.978;2023-05-07T04:21:35;6.23;;;5.70;;
2338;SDS011;1180;51.438;6.978;2023-05-07T04:24:00;7.13;;;6.33;;
2338;SDS011;1180;51.438;6.978;2023-05-07T04:26:25;7.57;;;6.63;;
2338;SDS011;1180;51.438;6.978;2023-05-07T04:28:51;8.60;;;6.83;;
2338;SDS011;1180;51.438;6.978;2023-05-07T04:31:16;7.23;;;6.50;;
2338;SDS011;1180;51.438;6.978;2023-05-07T04:33:41;9.13;;;6.73;;
2338;SDS011;1180;51.438;6.978;2023-05-07T04:36:07;8.70;;;7.90;;
2338;SDS011;1180;51.438;6.978;2023-05-07T04:38:32;9.13;;;8.00;;
2338;SDS011;1180;51.438;6.978;2023-05-07T04:41:04;8.00;;;7.20;;
2338;SDS011;1180;51.438;6.978;2023-05-07T04:43:31;11.70;;;7.77;;
2338;SDS011;1180;51.438;6.978;2023-05-07T04:45:57;8.60;;;7.80;;
2338;SDS011;1180;51.438;6.978;2023-05-07T04:48:22;9.00;;;8.10;;
2338;SDS011;1180;51.438;6.978;2023-05-07T04:50:48;9.23;;;8.37;;
2338;SDS011;1180;51.438;6.978;2023-05-07T04:53:14;10.33;;;9.33;;
2338;SDS011;1180;51.438;6.978;2023-05-07T04:55:39;8.73;;;7.90;;
2338;SDS011;1180;51.438;6.978;2023-05-07T04:58:04;9.40;;;8.50;;
2338;SDS011;1180;51.438;6.978;2023-05-07T05:00:31;9.00;;;8.10;;
2338;SDS011;1180;51.438;6.978;2023-05-07T05:02:56;6.70;;;6.17;;
2338;SDS011;1180;51.438;6.978;2023-05-07T05:05:22;9.40;;;8.50;;
2338;SDS011;1180;51.438;6.978;2023-05-07T05:07:47;9.70;;;8.80;;
2338;SDS011;1180;51.438;6.978;2023-05-07T05:10:12;9.97;;;8.90;;
2338;SDS011;1180;51.438;6.978;2023-05-07T05:12:38;10.93;;;9.80;;
2338;SDS011;1180;51.438;6.978;2023-05-07T05:15:03;10.63;;;9.63;;
2338;SDS011;1180;51.438;6.978;2023-05-07T05:17:29;11.20;;;9.60;;
2338;SDS011;1180;51.438;6.978;2023-05-07T05:19:54;10.20;;;9.17;;
2338;SDS011;1180;51.438;6.978;2023-05-07T05:22:20;10.50;;;9.60;;
2338;SDS011;1180;51.438;6.978;2023-05-07T05:24:46;9.27;;;8.47;;
2338;SDS011;1180;51.438;6.978;2023-05-07T05:27:11;9.50;;;8.50;;
2338;SDS011;1180;51.438;6.978;2023-05-07T05:29:36;9.13;;;8.33;;
2338;SDS011;1180;51.438;6.978;2023-05-07T05:32:02;9.10;;;8.27;;
2338;SDS011;1180;51.438;6.978;2023-05-07T05:34:27;9.97;;;7.57;;
2338;SDS011;1180;51.438;6.978;2023-05-07T05:36:52;12.23;;;9.70;;
2338;SDS011;1180;51.438;6.978;2023-05-07T05:39:18;10.47;;;8.47;;
2338;SDS011;1180;51.438;6.978;2023-05-07T05:41:44;9.50;;;8.53;;
2338;SDS011;1180;51.438;6.978;2023-05-07T05:44:10;8.50;;;7.80;;
2338;SDS011;1180;51.438;6.978;2023-05-07T05:46:35;9.13;;;8.30;;
2338;SDS011;1180;51.438;6.978;2023-05-07T05:49:00;8.53;;;7.17;;
2338;SDS011;1180;51.438;6.978;2023-05-07T05:51:26;8.00;;;7.17;;
2338;SDS011;1180;51.438;6.978;2023-05-07T05:53:51;8.27;;;7.43;;
2338;SDS011;1180;51.438;6.978;2023-05-07T05:56:16;8.00;;;7.30;;
2338;SDS011;1180;51.438;6.978;2023-05-07T05:58:42;9.23;;;7.93;;
2338;SDS011;1180;51.438;6.978;2023-05-07T06:01:07;9.60;;;8.60;;
2338;SDS011;1180;51.438;6.978;2023-05-07T06:03:33;9.50;;;7.20;;
2338;SDS011;1180;51.438;6.978;2023-05-07T06:05:58;8.20;;;7.50;;
2338;SDS011;1180;51.438;6.978;2023-05-07T06:08:25;9.37;;;8.33;;
2338;SDS011;1180;51.438;6.978;2023-05-07T06:10:50;7.47;;;6.77;;
2338;SDS011;1180;51.438;6.978;2023-05-07T06:13:15;11.17;;;6.90;;
2338;SDS011;1180;51.438;6.978;2023-05-07T06:15:41;8.20;;;6.90;;
2338;SDS011;1180;51.438;6.978;2023-05-07T06:18:06;6.77;;;6.10;;
2338;SDS011;1180;51.438;6.978;2023-05-07T06:20:31;8.00;;;6.37;;
2338;SDS011;1180;51.438;6.978;2023-05-07T06:22:57;6.63;;;5.70;;
2338;SDS011;1180;51.438;6.978;2023-05-07T06:25:22;7.10;;;6.47;;
2338;SDS011;1180;51.438;6.978;2023-05-07T06:27:48;6.83;;;6.13;;
2338;SDS011;1180;51.438;6.978;2023-05-07T06:30:15;6.03;;;4.30;;
2338;SDS011;1180;51.438;6.978;2023-05-07T06:32:40;5.50;;;4.93;;
2338;SDS011;1180;51.438;6.978;2023-05-07T06:35:06;6.70;;;5.63;;
2338;SDS011;1180;51.438;6.978;2023-05-07T06:37:31;5.17;;;4.70;;
2338;SDS011;1180;51.438;6.978;2023-05-07T06:39:57;4.50;;;4.10;;
2338;SDS011;1180;51.438;6.978;2023-05-07T06:42:22;5.17;;;4.67;;
2338;SDS011;1180;51.438;6.978;2023-05-07T06:44:48;5.30;;;4.90;;
2338;SDS011;1180;51.438;6.978;2023-05-07T06:47:13;4.00;;;3.60;;
2338;SDS011;1180;51.438;6.978;2023-05-07T06:49:38;4.90;;;4.40;;
2338;SDS011;1180;51.438;6.978;2023-05-07T06:52:04;4.53;;;4.13;;
2338;SDS011;1180;51.438;6.978;2023-05-07T06:54:29;6.13;;;4.20;;
2338;SDS011;1180;51.438;6.978;2023-05-07T06:56:54;4.13;;;3.17;;
2338;SDS011;1180;51.438;6.978;2023-05-07T06:59:20;3.60;;;2.90;;
2338;SDS011;1180;51.438;6.978;2023-05-07T07:01:45;3.87;;;3.47;;
2338;SDS011;1180;51.438;6.978;2023-05-07T07:04:10;4.67;;;3.00;;
2338;SDS011;1180;51.438;6.978;2023-05-07T07:06:36;4.23;;;3.17;;
2338;SDS011;1180;51.438;6.978;2023-05-07T07:09:01;5.20;;;3.13;;
2338;SDS011;1180;51.438;6.978;2023-05-07T07:11:26;4.90;;;3.40;;
2338;SDS011;1180;51.438;6.978;2023-05-07T07:13:52;2.90;;;2.70;;
2338;SDS011;1180;51.438;6.978;2023-05-07T07:16:19;3.60;;;3.23;;
2338;SDS011;1180;51.438;6.978;2023-05-07T07:18:45;3.40;;;3.13;;
2338;SDS011;1180;51.438;6.978;2023-05-07T07:21:10;3.03;;;2.70;;
2338;SDS011;1180;51.438;6.978;2023-05-07T07:23:36;3.60;;;3.30;;
2338;SDS011;1180;51.438;6.978;2023-05-07T07:26:01;2.80;;;2.43;;
2338;SDS011;1180;51.438;6.978;2023-05-07T07:28:26;3.60;;;3.10;;
2338;SDS011;1180;51.438;6.978;2023-05-07T07:30:52;3.50;;;3.13;;
2338;SDS011;1180;51.438;6.978;2023-05-07T07:33:18;2.90;;;2.70;;
2338;SDS011;1180;51.438;6.978;2023-05-07T07:35:43;3.67;;;2.63;;
2338;SDS011;1180;51.438;6.978;2023-05-07T07:38:09;4.30;;;3.20;;
2338;SDS011;1180;51.438;6.978;2023-05-07T07:40:34;4.90;;;2.63;;
2338;SDS011;1180;51.438;6.978;2023-05-07T07:43:00;3.93;;;2.97;;
2338;SDS011;1180;51.438;6.978;2023-05-07T07:45:26;5.90;;;2.70;;
2338;SDS011;1180;51.438;6.978;2023-05-07T07:47:51;4.80;;;3.47;;
2338;SDS011;1180;51.438;6.978;2023-05-07T07:50:17;3.70;;;3.00;;
2338;SDS011;1180;51.438;6.978;2023-05-07T07:52:42;4.40;;;3.17;;
2338;SDS011;1180;51.438;6.978;2023-05-07T07:55:08;3.30;;;3.10;;
2338;SDS011;1180;51.438;6.978;2023-05-07T07:57:34;3.83;;;3.33;;
2338;SDS011;1180;51.438;6.978;2023-05-07T07:59:59;2.87;;;2.60;;
2338;SDS011;1180;51.438;6.978;2023-05-07T08:02:25;3.63;;;2.70;;
2338;SDS011;1180;51.438;6.978;2023-05-07T08:04:51;2.83;;;2.47;;
2338;SDS011;1180;51.438;6.978;2023-05-07T08:07:17;3.33;;;3.00;;
2338;SDS011;1180;51.438;6.978;2023-05-07T08:09:45;3.97;;;2.90;;
2338;SDS011;1180;51.438;6.978;2023-05-07T08:12:10;2.23;;;1.93;;
2338;SDS011;1180;51.438;6.978;2023-05-07T08:14:36;4.97;;;2.50;;
2338;SDS011;1180;51.438;6.978;2023-05-07T08:17:02;3.93;;;2.70;;
2338;SDS011;1180;51.438;6.978;2023-05-07T08:19:27;11.43;;;2.30;;
2338;SDS011;1180;51.438;6.978;2023-05-07T08:21:52;2.67;;;2.47;;
2338;SDS011;1180;51.438;6.978;2023-05-07T08:24:18;2.80;;;2.37;;
2338;SDS011;1180;51.438;6.978;2023-05-07T08:26:44;3.80;;;2.63;;
2338;SDS011;1180;51.438;6.978;2023-05-07T08:29:10;3.30;;;2.80;;
2338;SDS011;1180;51.438;6.978;2023-05-07T08:31:35;4.27;;;2.50;;
2338;SDS011;1180;51.438;6.978;2023-05-07T08:34:00;3.63;;;2.23;;
2338;SDS011;1180;51.438;6.978;2023-05-07T08:36:26;2.57;;;2.37;;
2338;SDS011;1180;51.438;6.978;2023-05-07T08:38:52;3.00;;;2.70;;
2338;SDS011;1180;51.438;6.978;2023-05-07T08:41:18;2.53;;;2.17;;
2338;SDS011;1180;51.438;6.978;2023-05-07T08:43:46;3.13;;;2.50;;
2338;SDS011;1180;51.438;6.978;2023-05-07T08:46:16;2.23;;;2.03;;
2338;SDS011;1180;51.438;6.978;2023-05-07T08:48:49;3.07;;;2.33;;
2338;SDS011;1180;51.438;6.978;2023-05-07T08:51:16;2.30;;;2.10;;
2338;SDS011;1180;51.438;6.978;2023-05-07T08:53:43;3.40;;;2.50;;
2338;SDS011;1180;51.438;6.978;2023-05-07T08:56:09;2.33;;;2.13;;
2338;SDS011;1180;51.438;6.978;2023-05-07T08:58:35;3.17;;;1.90;;
2338;SDS011;1180;51.438;6.978;2023-05-07T09:01:06;2.13;;;1.80;;
2338;SDS011;1180;51.438;6.978;2023-05-07T09:03:34;4.37;;;1.90;;
2338;SDS011;1180;51.438;6.978;2023-05-07T09:06:01;2.33;;;2.13;;
2338;SDS011;1180;51.438;6.978;2023-05-07T09:08:27;2.20;;;2.00;;
2338;SDS011;1180;51.438;6.978;2023-05-07T09:10:52;6.00;;;2.43;;
2338;SDS011;1180;51.438;6.978;2023-05-07T09:13:18;3.70;;;2.00;;
2338;SDS011;1180;51.438;6.978;2023-05-07T09:15:44;3.00;;;2.23;;
2338;SDS011;1180;51.438;6.978;2023-05-07T09:18:10;1.97;;;1.77;;
2338;SDS011;1180;51.438;6.978;2023-05-07T09:20:39;3.30;;;3.00;;
2338;SDS011;1180;51.438;6.978;2023-05-07T09:23:05;3.60;;;1.70;;
2338;SDS011;1180;51.438;6.978;2023-05-07T09:25:32;2.03;;;1.80;;
2338;SDS011;1180;51.438;6.978;2023-05-07T09:28:00;2.57;;;2.03;;
2338;SDS011;1180;51.438;6.978;2023-05-07T09:30:29;4.13;;;2.07;;
2338;SDS011;1180;51.438;6.978;2023-05-07T09:32:57;4.53;;;2.67;;
2338;SDS011;1180;51.438;6.978;2023-05-07T09:35:24;2.77;;;2.53;;
2338;SDS011;1180;51.438;6.978;2023-05-07T09:37:52;3.67;;;2.50;;
2338;SDS011;1180;51.438;6.978;2023-05-07T09:40:23;3.37;;;2.67;;
2338;SDS011;1180;51.438;6.978;2023-05-07T09:42:52;3.40;;;2.27;;
2338;SDS011;1180;51.438;6.978;2023-05-07T09:45:25;3.20;;;2.03;;
2338;SDS011;1180;51.438;6.978;2023-05-07T09:47:53;3.33;;;1.70;;
2338;SDS011;1180;51.438;6.978;2023-05-07T09:50:20;3.77;;;1.97;;
2338;SDS011;1180;51.438;6.978;2023-05-07T09:52:50;3.97;;;2.60;;
2338;SDS011;1180;51.438;6.978;2023-05-07T09:55:17;2.37;;;2.17;;
2338;SDS011;1180;51.438;6.978;2023-05-07T09:57:43;3.57;;;2.33;;
2338;SDS011;1180;51.438;6.978;2023-05-07T10:00:14;2.73;;;2.50;;
2338;SDS011;1180;51.438;6.978;2023-05-07T10:02:40;2.63;;;2.43;;
2338;SDS011;1180;51.438;6.978;2023-05-07T10:05:12;3.07;;;2.67;;
2338;SDS011;1180;51.438;6.978;2023-05-07T10:07:39;2.73;;;2.40;;
2338;SDS011;1180;51.438;6.978;2023-05-07T10:10:05;3.67;;;2.70;;
2338;SDS011;1180;51.438;6.978;2023-05-07T10:12:31;3.10;;;2.17;;
2338;SDS011;1180;51.438;6.978;2023-05-07T10:15:04;2.37;;;2.17;;
2338;SDS011;1180;51.438;6.978;2023-05-07T10:17:35;2.03;;;1.90;;
2338;SDS011;1180;51.438;6.978;2023-05-07T10:20:04;2.70;;;2.50;;
2338;SDS011;1180;51.438;6.978;2023-05-07T10:22:48;3.17;;;2.30;;
2338;SDS011;1180;51.438;6.978;2023-05-07T10:25:23;2.53;;;2.33;;
2338;SDS011;1180;51.438;6.978;2023-05-07T10:27:53;2.37;;;2.17;;
2338;SDS011;1180;51.438;6.978;2023-05-07T10:33:13;2.70;;;2.47;;
2338;SDS011;1180;51.438;6.978;2023-05-07T10:35:43;2.53;;;1.90;;
2338;SDS011;1180;51.438;6.978;2023-05-07T10:38:09;3.47;;;2.33;;
2338;SDS011;1180;51.438;6.978;2023-05-07T10:40:35;2.13;;;1.67;;
2338;SDS011;1180;51.438;6.978;2023-05-07T10:43:03;3.30;;;1.93;;
2338;SDS011;1180;51.438;6.978;2023-05-07T10:45:32;2.50;;;2.20;;
2338;SDS011;1180;51.438;6.978;2023-05-07T10:50:52;3.97;;;2.93;;
2338;SDS011;1180;51.438;6.978;2023-05-07T10:53:45;3.13;;;2.60;;
2338;SDS011;1180;51.438;6.978;2023-05-07T10:58:42;4.10;;;2.73;;
2338;SDS011;1180;51.438;6.978;2023-05-07T11:01:07;2.60;;;2.37;;
2338;SDS011;1180;51.438;6.978;2023-05-07T11:03:33;2.70;;;2.50;;
2338;SDS011;1180;51.438;6.978;2023-05-07T11:06:11;2.30;;;2.10;;
2338;SDS011;1180;51.438;6.978;2023-05-07T11:11:18;3.33;;;2.57;;
2338;SDS011;1180;51.438;6.978;2023-05-07T11:13:47;5.57;;;2.90;;
2338;SDS011;1180;51.438;6.978;2023-05-07T11:18:47;4.53;;;3.03;;
2338;SDS011;1180;51.438;6.978;2023-05-07T11:21:20;3.37;;;2.90;;
2338;SDS011;1180;51.438;6.978;2023-05-07T11:23:57;3.17;;;2.90;;
2338;SDS011;1180;51.438;6.978;2023-05-07T11:26:24;4.57;;;3.13;;
2338;SDS011;1180;51.438;6.978;2023-05-07T11:28:50;3.70;;;3.00;;
2338;SDS011;1180;51.438;6.978;2023-05-07T11:31:20;3.20;;;2.90;;
2338;SDS011;1180;51.438;6.978;2023-05-07T11:33:47;2.80;;;2.50;;
2338;SDS011;1180;51.438;6.978;2023-05-07T11:36:13;2.60;;;2.40;;
2338;SDS011;1180;51.438;6.978;2023-05-07T11:38:38;7.43;;;2.70;;
2338;SDS011;1180;51.438;6.978;2023-05-07T11:41:04;5.10;;;4.10;;
2338;SDS011;1180;51.438;6.978;2023-05-07T11:43:30;4.37;;;3.40;;
2338;SDS011;1180;51.438;6.978;2023-05-07T11:46:08;5.47;;;3.33;;
2338;SDS011;1180;51.438;6.978;2023-05-07T11:48:34;4.00;;;3.37;;
2338;SDS011;1180;51.438;6.978;2023-05-07T11:53:27;3.30;;;3.10;;
2338;SDS011;1180;51.438;6.978;2023-05-07T11:55:56;3.30;;;3.00;;
2338;SDS011;1180;51.438;6.978;2023-05-07T11:58:24;3.53;;;3.23;;
2338;SDS011;1180;51.438;6.978;2023-05-07T12:00:53;3.00;;;2.70;;
2338;SDS011;1180;51.438;6.978;2023-05-07T12:03:19;3.57;;;3.27;;
2338;SDS011;1180;51.438;6.978;2023-05-07T12:05:46;4.27;;;2.97;;
2338;SDS011;1180;51.438;6.978;2023-05-07T12:08:16;5.43;;;3.27;;
2338;SDS011;1180;51.438;6.978;2023-05-07T12:10:42;3.80;;;3.50;;
2338;SDS011;1180;51.438;6.978;2023-05-07T12:13:15;3.47;;;3.20;;
2338;SDS011;1180;51.438;6.978;2023-05-07T12:15:45;3.60;;;3.30;;
2338;SDS011;1180;51.438;6.978;2023-05-07T12:18:11;8.50;;;4.23;;
2338;SDS011;1180;51.438;6.978;2023-05-07T12:20:37;3.67;;;3.37;;
2338;SDS011;1180;51.438;6.978;2023-05-07T12:23:03;3.40;;;3.00;;
2338;SDS011;1180;51.438;6.978;2023-05-07T12:25:30;4.30;;;3.37;;
2338;SDS011;1180;51.438;6.978;2023-05-07T12:27:56;3.80;;;3.50;;
2338;SDS011;1180;51.438;6.978;2023-05-07T12:30:24;5.67;;;3.53;;
2338;SDS011;1180;51.438;6.978;2023-05-07T12:32:53;3.37;;;2.90;;
2338;SDS011;1180;51.438;6.978;2023-05-07T12:37:55;5.90;;;3.87;;
2338;SDS011;1180;51.438;6.978;2023-05-07T12:40:21;5.90;;;4.80;;
2338;SDS011;1180;51.438;6.978;2023-05-07T12:42:47;7.07;;;4.50;;
2338;SDS011;1180;51.438;6.978;2023-05-07T12:45:21;4.00;;;3.70;;
2338;SDS011;1180;51.438;6.978;2023-05-07T12:47:47;4.57;;;3.80;;
2338;SDS011;1180;51.438;6.978;2023-05-07T12:50:13;3.70;;;3.40;;
2338;SDS011;1180;51.438;6.978;2023-05-07T12:52:40;4.70;;;4.27;;
2338;SDS011;1180;51.438;6.978;2023-05-07T12:55:09;4.97;;;4.47;;
2338;SDS011;1180;51.438;6.978;2023-05-07T12:57:38;3.70;;;3.40;;
2338;SDS011;1180;51.438;6.978;2023-05-07T13:00:05;3.87;;;3.47;;
2338;SDS011;1180;51.438;6.978;2023-05-07T13:02:34;4.70;;;3.83;;
2338;SDS011;1180;51.438;6.978;2023-05-07T13:05:03;4.80;;;4.40;;
2338;SDS011;1180;51.438;6.978;2023-05-07T13:07:29;4.67;;;4.00;;
2338;SDS011;1180;51.438;6.978;2023-05-07T13:09:55;5.40;;;4.27;;
2338;SDS011;1180;51.438;6.978;2023-05-07T13:12:20;4.93;;;4.03;;
2338;SDS011;1180;51.438;6.978;2023-05-07T13:14:45;4.27;;;3.70;;
2338;SDS011;1180;51.438;6.978;2023-05-07T13:17:11;5.60;;;4.13;;
2338;SDS011;1180;51.438;6.978;2023-05-07T13:19:36;4.33;;;3.87;;
2338;SDS011;1180;51.438;6.978;2023-05-07T13:22:02;5.20;;;3.73;;
2338;SDS011;1180;51.438;6.978;2023-05-07T13:24:28;4.23;;;3.93;;
2338;SDS011;1180;51.438;6.978;2023-05-07T13:26:54;6.77;;;4.93;;
2338;SDS011;1180;51.438;6.978;2023-05-07T13:29:19;4.40;;;3.90;;
2338;SDS011;1180;51.438;6.978;2023-05-07T13:31:46;4.03;;;3.70;;
2338;SDS011;1180;51.438;6.978;2023-05-07T13:34:11;4.40;;;4.00;;
2338;SDS011;1180;51.438;6.978;2023-05-07T13:36:37;4.60;;;4.10;;
2338;SDS011;1180;51.438;6.978;2023-05-07T13:39:04;7.10;;;4.97;;
2338;SDS011;1180;51.438;6.978;2023-05-07T13:41:31;6.07;;;4.97;;
2338;SDS011;1180;51.438;6.978;2023-05-07T13:43:57;5.03;;;4.50;;
2338;SDS011;1180;51.438;6.978;2023-05-07T13:46:22;5.57;;;5.07;;
2338;SDS011;1180;51.438;6.978;2023-05-07T13:48:48;5.97;;;5.37;;
2338;SDS011;1180;51.438;6.978;2023-05-07T13:51:13;4.87;;;4.47;;
2338;SDS011;1180;51.438;6.978;2023-05-07T13:53:39;5.80;;;5.20;;
2338;SDS011;1180;51.438;6.978;2023-05-07T13:56:05;4.67;;;4.23;;
2338;SDS011;1180;51.438;6.978;2023-05-07T13:58:30;6.00;;;5.40;;
2338;SDS011;1180;51.438;6.978;2023-05-07T14:00:56;7.07;;;5.67;;
2338;SDS011;1180;51.438;6.978;2023-05-07T14:03:22;5.83;;;5.27;;
2338;SDS011;1180;51.438;6.978;2023-05-07T14:05:47;5.57;;;5.07;;
2338;SDS011;1180;51.438;6.978;2023-05-07T14:08:13;6.90;;;6.30;;
2338;SDS011;1180;51.438;6.978;2023-05-07T14:10:45;6.50;;;6.00;;
2338;SDS011;1180;51.438;6.978;2023-05-07T14:13:11;7.93;;;7.13;;
2338;SDS011;1180;51.438;6.978;2023-05-07T14:15:37;8.60;;;7.80;;
2338;SDS011;1180;51.438;6.978;2023-05-07T14:18:02;11.70;;;7.00;;
2338;SDS011;1180;51.438;6.978;2023-05-07T14:20:28;6.77;;;5.70;;
2338;SDS011;1180;51.438;6.978;2023-05-07T14:22:55;9.27;;;7.00;;
2338;SDS011;1180;51.438;6.978;2023-05-07T14:25:21;8.60;;;7.70;;
2338;SDS011;1180;51.438;6.978;2023-05-07T14:27:47;7.80;;;6.93;;
2338;SDS011;1180;51.438;6.978;2023-05-07T14:30:12;9.53;;;7.90;;
2338;SDS011;1180;51.438;6.978;2023-05-07T14:32:38;8.47;;;7.33;;
2338;SDS011;1180;51.438;6.978;2023-05-07T14:35:03;7.53;;;6.83;;
2338;SDS011;1180;51.438;6.978;2023-05-07T14:37:29;9.03;;;7.60;;
2338;SDS011;1180;51.438;6.978;2023-05-07T14:39:55;9.87;;;8.67;;
2338;SDS011;1180;51.438;6.978;2023-05-07T14:42:20;8.97;;;8.07;;
2338;SDS011;1180;51.438;6.978;2023-05-07T14:44:46;10.13;;;8.90;;
2338;SDS011;1180;51.438;6.978;2023-05-07T14:47:13;9.43;;;8.27;;
2338;SDS011;1180;51.438;6.978;2023-05-07T14:49:38;12.33;;;8.20;;
2338;SDS011;1180;51.438;6.978;2023-05-07T14:52:04;9.73;;;7.93;;
2338;SDS011;1180;51.438;6.978;2023-05-07T14:54:33;9.37;;;8.43;;
2338;SDS011;1180;51.438;6.978;2023-05-07T14:56:59;10.17;;;8.90;;
2338;SDS011;1180;51.438;6.978;2023-05-07T14:59:24;10.17;;;9.17;;
2338;SDS011;1180;51.438;6.978;2023-05-07T15:01:50;8.80;;;8.07;;
2338;SDS011;1180;51.438;6.978;2023-05-07T15:04:15;9.90;;;8.93;;
2338;SDS011;1180;51.438;6.978;2023-05-07T15:06:41;8.80;;;8.00;;
2338;SDS011;1180;51.438;6.978;2023-05-07T15:09:06;9.83;;;8.50;;
2338;SDS011;1180;51.438;6.978;2023-05-07T15:11:33;9.40;;;8.53;;
2338;SDS011;1180;51.438;6.978;2023-05-07T15:13:59;8.70;;;7.90;;
2338;SDS011;1180;51.438;6.978;2023-05-07T15:16:25;8.90;;;8.00;;
2338;SDS011;1180;51.438;6.978;2023-05-07T15:18:51;8.30;;;7.53;;
2338;SDS011;1180;51.438;6.978;2023-05-07T15:21:17;8.70;;;7.80;;
2338;SDS011;1180;51.438;6.978;2023-05-07T15:23:42;8.50;;;7.70;;
2338;SDS011;1180;51.438;6.978;2023-05-07T15:26:09;8.73;;;7.90;;
2338;SDS011;1180;51.438;6.978;2023-05-07T15:28:35;9.03;;;8.13;;